Time;durP1;ratioP1;P1;durP2;ratioP2;P2;SDS_P1;SDS_P2;PMS_P1;PMS_P2;Temp;Humidity;BMP_temperature;BMP_pressure;BME280_temperature;BME280_humidity;BME280_pressure;Samples;Min_cycle;Max_cycle;Signal;HPM_P1;HPM_P2
2022/11/24 00:02:01;;;;;;;44.13;32.40;;;1.40;99.90;;;;;;5028681;28;20227;-49
2022/11/24 00:04:27;;;;;;;41.57;30.43;;;1.40;99.90;;;;;;5027762;28;20556;-46
2022/11/24 00:06:52;;;;;;;39.50;31.10;;;1.40;99.90;;;;;;5028401;28;20291;-46
2022/11/24 00:09:18;;;;;;;40.47;29.90;;;1.40;99.90;;;;;;5028361;28;20206;-49
2022/11/24 00:11:44;;;;;;;40.13;31.07;;;1.40;99.90;;;;;;5027615;28;20595;-49
2022/11/24 00:14:10;;;;;;;42.90;31.65;;;1.30;99.90;;;;;;5026831;28;20444;-48
2022/11/24 00:16:37;;;;;;;36.30;31.10;;;1.30;99.90;;;;;;5028000;28;20213;-47
2022/11/24 00:19:06;;;;;;;42.00;30.92;;;1.20;99.90;;;;;;5027720;28;20196;-55
2022/11/24 00:21:32;;;;;;;41.55;30.77;;;1.30;99.90;;;;;;5028287;28;20315;-45
2022/11/24 00:23:58;;;;;;;44.63;30.47;;;1.20;99.90;;;;;;5027263;28;20653;-51
2022/11/24 00:26:27;;;;;;;35.92;30.33;;;1.10;99.90;;;;;;5026353;28;20192;-47
2022/11/24 00:28:56;;;;;;;40.55;31.95;;;1.10;99.90;;;;;;5028784;28;20197;-46
2022/11/24 00:31:26;;;;;;;38.63;30.75;;;1.10;99.90;;;;;;5028051;28;20189;-49
2022/11/24 00:33:54;;;;;;;41.72;30.95;;;1.10;99.90;;;;;;5027522;28;20684;-46
2022/11/24 00:36:21;;;;;;;39.22;31.00;;;1.10;99.90;;;;;;5026834;28;20245;-45
2022/11/24 00:38:59;;;;;;;37.85;29.33;;;1.10;99.90;;;;;;5026970;28;20181;-47
2022/11/24 00:41:27;;;;;;;41.95;31.08;;;1.00;99.90;;;;;;5021903;28;20196;-49
2022/11/24 00:43:53;;;;;;;44.30;31.02;;;1.00;99.90;;;;;;5027470;28;20193;-45
2022/11/24 00:46:20;;;;;;;41.42;30.77;;;1.00;99.90;;;;;;5026652;28;20243;-47
2022/11/24 00:48:46;;;;;;;44.85;30.13;;;0.90;99.90;;;;;;5028604;28;20239;-46
2022/11/24 00:51:14;;;;;;;36.00;29.87;;;0.90;99.90;;;;;;5026884;28;20669;-49
2022/11/24 00:53:40;;;;;;;38.80;29.75;;;0.90;99.90;;;;;;5027148;28;20473;-55
2022/11/24 00:56:06;;;;;;;43.47;31.42;;;0.80;99.90;;;;;;5027862;28;20212;-49
2022/11/24 00:58:32;;;;;;;40.22;29.17;;;0.80;99.90;;;;;;5027930;28;20254;-47
2022/11/24 01:01:16;;;;;;;41.00;30.52;;;0.80;99.90;;;;;;5028559;28;20190;-47
2022/11/24 01:03:42;;;;;;;39.47;29.73;;;0.80;99.90;;;;;;5025801;28;20189;-51
2022/11/24 01:06:11;;;;;;;37.50;29.67;;;0.80;99.90;;;;;;5027362;28;20312;-47
2022/11/24 01:08:37;;;;;;;40.42;29.60;;;0.70;99.90;;;;;;5026857;28;20267;-50
2022/11/24 01:11:10;;;;;;;38.05;28.58;;;0.70;99.90;;;;;;5026031;28;20192;-46
2022/11/24 01:13:36;;;;;;;43.42;29.27;;;0.70;99.90;;;;;;5023763;28;20577;-47
2022/11/24 01:16:02;;;;;;;43.72;29.02;;;0.70;99.90;;;;;;5026573;28;20745;-49
2022/11/24 01:18:27;;;;;;;40.50;29.07;;;0.70;99.90;;;;;;5027022;28;20185;-49
2022/11/24 01:20:53;;;;;;;40.13;30.63;;;0.60;99.90;;;;;;5027645;28;20542;-45
2022/11/24 01:23:18;;;;;;;41.10;29.87;;;0.60;99.90;;;;;;5027544;28;20286;-48
2022/11/24 01:25:44;;;;;;;40.50;30.57;;;0.60;99.90;;;;;;5027239;28;20182;-49
2022/11/24 01:28:10;;;;;;;36.27;29.03;;;0.60;99.90;;;;;;5025675;28;20588;-46
2022/11/24 01:30:35;;;;;;;37.37;30.23;;;0.60;99.90;;;;;;5026436;28;20184;-47
2022/11/24 01:33:01;;;;;;;41.27;30.37;;;0.50;99.90;;;;;;5028227;28;20530;-48
2022/11/24 01:35:26;;;;;;;38.60;29.87;;;0.50;99.90;;;;;;5027290;28;20186;-48
2022/11/24 01:37:52;;;;;;;39.77;30.43;;;0.40;99.90;;;;;;5025542;28;20231;-50
2022/11/24 01:40:17;;;;;;;39.83;30.77;;;0.40;99.90;;;;;;5025940;28;20681;-46
2022/11/24 01:42:49;;;;;;;38.10;28.70;;;0.40;99.90;;;;;;5024385;28;20188;-51
2022/11/24 01:45:31;;;;;;;41.33;29.23;;;0.30;99.90;;;;;;5026548;28;20208;-48
2022/11/24 01:48:00;;;;;;;43.72;28.25;;;0.30;99.90;;;;;;5026112;28;20241;-50
2022/11/24 01:50:25;;;;;;;42.30;29.15;;;0.30;99.90;;;;;;5027454;28;20199;-52
2022/11/24 01:52:55;;;;;;;35.77;27.80;;;0.30;99.90;;;;;;5027814;28;20199;-48
2022/11/24 01:55:26;;;;;;;36.70;27.40;;;0.30;99.90;;;;;;5030864;28;20268;-49
2022/11/24 01:58:12;;;;;;;41.00;30.15;;;0.30;99.90;;;;;;5029919;28;20206;-48
2022/11/24 02:00:41;;;;;;;37.85;28.45;;;0.30;99.90;;;;;;5030529;28;20204;-58
2022/11/24 02:03:08;;;;;;;40.17;28.80;;;0.30;99.90;;;;;;5030547;28;20200;-47
2022/11/24 02:06:04;;;;;;;40.08;28.65;;;0.20;99.90;;;;;;5029955;28;20211;-46
2022/11/24 02:08:51;;;;;;;38.20;29.08;;;0.20;99.90;;;;;;5028927;28;20189;-48
2022/11/24 02:11:18;;;;;;;43.08;30.02;;;0.20;99.90;;;;;;5024816;28;20189;-46
2022/11/24 02:13:45;;;;;;;39.17;30.55;;;0.20;99.90;;;;;;5031470;28;20332;-50
2022/11/24 02:16:11;;;;;;;37.78;30.55;;;0.20;99.90;;;;;;5021846;28;20283;-48
2022/11/24 02:18:38;;;;;;;40.77;30.17;;;0.20;99.90;;;;;;5028118;28;20188;-47
2022/11/24 02:21:05;;;;;;;37.47;30.58;;;0.20;99.90;;;;;;5029249;28;20598;-48
2022/11/24 02:23:37;;;;;;;33.38;28.48;;;0.20;99.90;;;;;;5030547;28;20212;-49
2022/11/24 02:26:06;;;;;;;39.58;29.13;;;0.20;99.90;;;;;;5029878;28;20191;-50
2022/11/24 02:28:32;;;;;;;40.78;29.83;;;0.10;99.90;;;;;;5016957;28;20718;-49
2022/11/24 02:30:59;;;;;;;35.72;29.08;;;0.10;99.90;;;;;;5029548;28;20673;-45
2022/11/24 02:33:26;;;;;;;38.90;29.40;;;0.20;99.90;;;;;;5030065;28;20192;-49
2022/11/24 02:35:51;;;;;;;37.42;27.55;;;0.20;99.90;;;;;;5030295;28;20712;-50
2022/11/24 02:38:17;;;;;;;38.83;28.93;;;0.10;99.90;;;;;;5030249;28;20185;-47
2022/11/24 02:40:46;;;;;;;36.60;28.67;;;0.20;99.90;;;;;;5029250;28;20192;-48
2022/11/24 02:43:16;;;;;;;38.17;29.77;;;0.10;99.90;;;;;;5028533;28;20589;-48
2022/11/24 02:45:42;;;;;;;42.40;30.83;;;0.10;99.90;;;;;;5028283;28;20179;-48
2022/11/24 02:48:07;;;;;;;38.33;28.53;;;0.10;99.90;;;;;;5029956;28;20243;-49
2022/11/24 02:50:33;;;;;;;44.30;29.33;;;0.20;99.90;;;;;;5029465;28;20194;-47
2022/11/24 02:52:59;;;;;;;36.60;28.00;;;0.10;99.90;;;;;;5030455;28;20196;-49
2022/11/24 02:55:24;;;;;;;38.77;28.50;;;0.10;99.90;;;;;;5029448;28;20185;-47
2022/11/24 02:57:50;;;;;;;38.53;28.73;;;0.10;99.90;;;;;;5028568;28;20635;-48
2022/11/24 03:00:17;;;;;;;39.77;28.83;;;0.10;99.90;;;;;;5029281;28;20184;-52
2022/11/24 03:02:42;;;;;;;38.30;29.25;;;0.10;99.90;;;;;;5029873;28;20185;-48
2022/11/24 03:05:10;;;;;;;42.67;28.57;;;0.10;99.90;;;;;;5029656;28;20272;-52
2022/11/24 03:07:36;;;;;;;43.15;30.98;;;0.10;99.90;;;;;;5027003;28;20226;-48
2022/11/24 03:10:02;;;;;;;39.37;30.63;;;0.10;99.90;;;;;;5019538;28;20185;-46
2022/11/24 03:12:28;;;;;;;41.78;29.45;;;0.10;99.90;;;;;;5026716;28;20520;-50
2022/11/24 03:14:53;;;;;;;40.30;30.67;;;0.10;99.90;;;;;;5029034;28;20200;-49
2022/11/24 03:17:19;;;;;;;42.17;31.73;;;0.20;99.90;;;;;;5028493;28;20207;-50
2022/11/24 03:19:44;;;;;;;46.37;31.37;;;0.20;99.90;;;;;;5029457;28;20288;-52
2022/11/24 03:22:12;;;;;;;43.10;31.10;;;0.20;99.90;;;;;;5028582;28;20558;-49
2022/11/24 03:24:37;;;;;;;42.63;30.95;;;0.20;99.90;;;;;;5029474;28;20694;-47
2022/11/24 03:27:03;;;;;;;46.73;32.83;;;0.10;99.90;;;;;;5024009;28;20197;-47
2022/11/24 03:29:29;;;;;;;44.33;31.70;;;0.20;99.90;;;;;;5025375;28;20675;-46
2022/11/24 03:31:54;;;;;;;41.33;30.40;;;0.10;99.90;;;;;;5028321;28;20454;-49
2022/11/24 03:34:20;;;;;;;41.80;30.90;;;0.10;99.90;;;;;;5029434;28;20273;-48
2022/11/24 03:36:45;;;;;;;37.67;30.20;;;0.10;99.90;;;;;;5027971;28;20209;-47
2022/11/24 03:39:11;;;;;;;42.57;29.90;;;0.10;99.90;;;;;;5029402;28;20210;-47
2022/11/24 03:41:37;;;;;;;50.77;31.07;;;0.00;99.90;;;;;;5027860;28;20527;-47
2022/11/24 03:44:02;;;;;;;42.70;29.70;;;0.00;99.90;;;;;;5028417;28;20823;-46
2022/11/24 03:46:28;;;;;;;41.27;30.60;;;0.10;99.90;;;;;;5027764;28;20195;-48
2022/11/24 03:48:53;;;;;;;39.80;30.50;;;0.00;99.90;;;;;;5028085;28;20229;-46
2022/11/24 03:51:19;;;;;;;46.07;31.90;;;0.00;99.90;;;;;;5028808;28;20188;-59
2022/11/24 03:53:45;;;;;;;47.27;30.10;;;0.00;99.90;;;;;;5027865;28;20216;-48
2022/11/24 03:56:10;;;;;;;48.60;32.40;;;0.10;99.90;;;;;;5025503;28;20675;-50
2022/11/24 03:58:36;;;;;;;42.73;31.07;;;0.10;99.90;;;;;;5029477;28;20179;-48
2022/11/24 04:01:02;;;;;;;45.10;31.80;;;0.10;99.90;;;;;;5024807;28;20190;-48
2022/11/24 04:03:28;;;;;;;43.10;30.35;;;0.10;99.90;;;;;;5028781;28;20187;-49
2022/11/24 04:05:53;;;;;;;50.30;30.50;;;0.10;99.90;;;;;;5028117;28;20672;-48
2022/11/24 04:08:19;;;;;;;46.43;30.67;;;0.00;99.90;;;;;;5026688;28;20474;-57
2022/11/24 04:10:49;;;;;;;44.63;31.70;;;0.10;99.90;;;;;;5027614;28;20192;-47
2022/11/24 04:13:16;;;;;;;43.78;31.95;;;0.00;99.90;;;;;;5028413;28;20190;-48
2022/11/24 04:15:42;;;;;;;49.53;31.08;;;0.00;99.90;;;;;;5025102;28;20246;-47
2022/11/24 04:18:09;;;;;;;42.17;29.73;;;-0.10;99.90;;;;;;5027068;28;20188;-46
2022/11/24 04:20:35;;;;;;;45.97;30.00;;;-0.10;99.90;;;;;;5027877;28;20180;-48
2022/11/24 04:23:01;;;;;;;40.15;29.30;;;-0.10;99.90;;;;;;5027942;28;20211;-48
2022/11/24 04:25:27;;;;;;;46.10;28.30;;;-0.10;99.90;;;;;;5027946;28;20269;-55
2022/11/24 04:27:54;;;;;;;38.63;28.77;;;-0.10;99.90;;;;;;5028179;28;20437;-48
2022/11/24 04:30:21;;;;;;;42.28;29.80;;;-0.10;99.90;;;;;;5028053;28;20439;-46
2022/11/24 04:32:47;;;;;;;41.70;29.88;;;0.00;99.90;;;;;;5023014;28;20549;-45
2022/11/24 04:35:13;;;;;;;42.40;29.73;;;0.00;99.90;;;;;;5027277;28;20182;-48
2022/11/24 04:37:39;;;;;;;43.13;28.73;;;0.00;99.90;;;;;;5027024;28;20621;-48
2022/11/24 04:40:06;;;;;;;44.05;29.73;;;0.00;99.90;;;;;;5028062;28;20191;-45
2022/11/24 04:42:32;;;;;;;49.97;29.85;;;0.00;99.90;;;;;;5027519;28;20242;-47
2022/11/24 04:44:58;;;;;;;54.70;32.03;;;0.00;99.90;;;;;;5027361;28;20561;-55
2022/11/24 04:47:25;;;;;;;42.97;29.27;;;0.00;99.90;;;;;;5027113;28;20194;-48
2022/11/24 04:49:51;;;;;;;45.75;29.48;;;0.10;99.90;;;;;;5027772;28;20214;-49
2022/11/24 04:52:18;;;;;;;47.40;30.88;;;0.10;99.90;;;;;;5027678;28;20664;-46
2022/11/24 04:54:44;;;;;;;43.85;29.13;;;0.10;99.90;;;;;;5027647;28;20182;-50
2022/11/24 04:57:18;;;;;;;44.20;31.08;;;0.20;99.90;;;;;;5027418;28;20206;-46
2022/11/24 04:59:43;;;;;;;39.85;28.15;;;0.20;99.90;;;;;;5027099;28;20230;-49
2022/11/24 05:02:10;;;;;;;45.03;29.67;;;0.20;99.90;;;;;;5018475;28;20184;-48
2022/11/24 05:04:35;;;;;;;42.78;30.33;;;0.20;99.90;;;;;;5021407;28;21826;-49
2022/11/24 05:07:01;;;;;;;44.63;28.90;;;0.30;99.90;;;;;;5027127;28;20462;-50
2022/11/24 05:09:27;;;;;;;42.77;29.60;;;0.40;99.90;;;;;;5024754;28;20190;-47
2022/11/24 05:11:52;;;;;;;50.10;28.90;;;0.40;99.90;;;;;;5026949;28;20569;-59
2022/11/24 05:14:18;;;;;;;44.37;28.83;;;0.40;99.90;;;;;;5019059;28;20193;-47
2022/11/24 05:16:43;;;;;;;39.80;29.33;;;0.40;99.90;;;;;;5020634;28;20209;-51
2022/11/24 05:19:09;;;;;;;38.73;28.00;;;0.50;99.90;;;;;;5016497;28;20187;-56
2022/11/24 05:21:35;;;;;;;42.50;28.73;;;0.50;99.90;;;;;;5017951;28;20175;-58
2022/11/24 05:24:00;;;;;;;44.97;29.60;;;0.50;99.90;;;;;;5016202;28;20199;-51
2022/11/24 05:26:26;;;;;;;43.60;29.07;;;0.60;99.90;;;;;;5019589;28;20656;-49
2022/11/24 05:28:52;;;;;;;45.23;28.93;;;0.70;99.90;;;;;;5020307;28;20645;-50
2022/11/24 05:31:17;;;;;;;43.93;30.10;;;0.70;99.90;;;;;;5021760;28;20339;-50
2022/11/24 05:33:44;;;;;;;43.13;30.40;;;0.70;99.90;;;;;;5023171;28;20188;-48
2022/11/24 05:36:51;;;;;;;39.63;29.15;;;0.70;99.90;;;;;;5021340;28;20507;-55
2022/11/24 05:38:59;;;;;;;44.50;28.45;;;0.80;99.90;;;;;;5026864;28;20186;-50
2022/11/24 05:41:25;;;;;;;41.55;30.13;;;0.70;99.90;;;;;;5030888;28;20544;-49
2022/11/24 05:43:51;;;;;;;41.13;28.60;;;0.80;99.90;;;;;;5030376;28;20199;-49
2022/11/24 05:46:17;;;;;;;49.53;29.03;;;0.80;99.90;;;;;;5029869;28;20526;-46
2022/11/24 05:48:42;;;;;;;42.50;28.97;;;0.80;99.90;;;;;;5030848;28;20204;-46
2022/11/24 05:51:08;;;;;;;40.90;27.83;;;0.80;99.90;;;;;;5030850;28;20196;-48
2022/11/24 05:53:33;;;;;;;38.33;28.27;;;0.80;99.90;;;;;;5031661;28;20558;-49
2022/11/24 05:56:02;;;;;;;41.53;29.27;;;0.90;99.90;;;;;;5031717;28;20185;-47
2022/11/24 05:58:28;;;;;;;44.38;29.80;;;0.90;99.90;;;;;;5032022;28;20185;-47
2022/11/24 06:00:53;;;;;;;43.40;29.23;;;0.90;99.90;;;;;;5030620;28;20233;-49
2022/11/24 06:03:19;;;;;;;36.93;28.07;;;0.90;99.90;;;;;;5029997;28;20193;-49
2022/11/24 06:05:46;;;;;;;43.00;29.30;;;0.90;99.90;;;;;;5031510;28;20699;-49
2022/11/24 06:08:11;;;;;;;38.03;28.35;;;0.90;99.90;;;;;;5030900;28;20225;-48
2022/11/24 06:10:37;;;;;;;42.23;27.63;;;0.90;99.90;;;;;;5031496;28;20223;-50
2022/11/24 06:13:05;;;;;;;42.90;28.43;;;0.90;99.90;;;;;;5029742;28;20674;-51
2022/11/24 06:15:31;;;;;;;39.55;28.45;;;1.00;99.90;;;;;;5019633;28;20523;-49
2022/11/24 06:17:57;;;;;;;43.90;28.58;;;1.00;99.90;;;;;;5029207;28;20201;-48
2022/11/24 06:20:23;;;;;;;40.17;28.37;;;1.00;99.90;;;;;;5030357;28;20194;-49
2022/11/24 06:22:49;;;;;;;39.67;29.60;;;1.10;99.90;;;;;;5031206;28;20189;-46
2022/11/24 06:25:15;;;;;;;42.27;31.27;;;1.10;99.90;;;;;;5031116;28;20242;-49
2022/11/24 06:27:41;;;;;;;39.72;29.85;;;1.10;99.90;;;;;;5031073;28;20229;-52
2022/11/24 06:30:07;;;;;;;43.60;28.80;;;1.10;99.90;;;;;;5031039;28;20244;-48
2022/11/24 06:32:32;;;;;;;40.03;29.85;;;1.10;99.90;;;;;;5030916;28;20192;-48
2022/11/24 06:34:58;;;;;;;45.43;30.53;;;1.20;99.90;;;;;;5031068;28;20527;-47
2022/11/24 06:37:23;;;;;;;40.27;29.47;;;1.30;99.90;;;;;;5030898;28;20606;-47
2022/11/24 06:39:49;;;;;;;41.10;29.30;;;1.30;99.90;;;;;;5030757;28;20239;-52
2022/11/24 06:42:17;;;;;;;43.43;30.57;;;1.30;99.90;;;;;;5028964;28;20193;-50
2022/11/24 06:44:45;;;;;;;48.47;30.38;;;1.30;99.90;;;;;;5023315;28;20189;-51
2022/11/24 06:47:11;;;;;;;41.92;29.70;;;1.30;99.90;;;;;;5030090;28;20257;-51
2022/11/24 06:49:36;;;;;;;43.57;30.80;;;1.30;99.90;;;;;;5030879;28;20611;-47
2022/11/24 06:52:02;;;;;;;40.57;30.07;;;1.40;99.90;;;;;;5031053;28;20232;-50
2022/11/24 06:54:28;;;;;;;44.17;30.27;;;1.40;99.90;;;;;;5031133;28;20636;-47
2022/11/24 06:56:57;;;;;;;39.90;29.53;;;1.60;99.90;;;;;;5030421;28;20785;-51
2022/11/24 06:59:23;;;;;;;39.55;30.95;;;1.50;99.90;;;;;;5030886;28;20198;-48
2022/11/24 07:01:49;;;;;;;42.50;31.83;;;1.60;99.90;;;;;;5030912;28;20194;-50
2022/11/24 07:04:15;;;;;;;45.20;31.47;;;1.60;99.90;;;;;;5030569;28;20433;-49
2022/11/24 07:06:41;;;;;;;45.00;32.20;;;1.70;99.90;;;;;;5030340;28;20237;-54
2022/11/24 07:09:09;;;;;;;49.42;33.83;;;1.70;99.90;;;;;;5030544;28;20546;-51
2022/11/24 07:11:35;;;;;;;45.03;31.55;;;1.80;99.90;;;;;;5028583;28;20186;-53
2022/11/24 07:14:01;;;;;;;41.00;31.90;;;1.80;99.90;;;;;;5030627;28;20209;-48
2022/11/24 07:16:27;;;;;;;44.30;33.90;;;1.90;99.90;;;;;;5030128;28;21007;-51
2022/11/24 07:18:53;;;;;;;39.88;32.80;;;1.90;99.90;;;;;;5030417;28;20567;-49
2022/11/24 07:21:21;;;;;;;43.88;33.00;;;1.90;99.90;;;;;;5030237;28;20186;-51
2022/11/24 07:23:55;;;;;;;42.95;34.60;;;2.00;99.90;;;;;;5030360;28;20197;-49
2022/11/24 07:26:21;;;;;;;43.20;33.65;;;2.10;99.90;;;;;;5030160;28;20607;-50
2022/11/24 07:28:47;;;;;;;46.10;35.30;;;2.10;99.90;;;;;;5029430;28;20326;-53
2022/11/24 07:31:17;;;;;;;45.30;36.15;;;2.10;99.90;;;;;;5029057;28;21000;-54
2022/11/24 07:33:46;;;;;;;49.28;34.70;;;2.10;99.90;;;;;;5030166;28;20189;-52
2022/11/24 07:36:12;;;;;;;43.17;33.65;;;2.10;99.90;;;;;;5029845;28;20614;-48
2022/11/24 07:38:37;;;;;;;41.80;34.47;;;2.20;99.90;;;;;;5030103;28;20182;-46
2022/11/24 07:41:06;;;;;;;50.30;35.27;;;2.20;99.90;;;;;;5029641;28;20236;-53
2022/11/24 07:43:33;;;;;;;48.95;35.35;;;2.30;99.90;;;;;;5029992;28;20181;-53
2022/11/24 07:45:59;;;;;;;44.75;35.92;;;2.30;99.90;;;;;;5029683;28;20181;-48
2022/11/24 07:48:25;;;;;;;43.55;36.22;;;2.30;99.90;;;;;;5029619;28;20186;-48
2022/11/24 07:50:51;;;;;;;45.63;37.13;;;2.30;99.90;;;;;;5028896;28;20544;-51
2022/11/24 07:53:16;;;;;;;46.77;37.17;;;2.30;99.90;;;;;;5029943;28;20434;-49
2022/11/24 07:55:42;;;;;;;46.80;36.63;;;2.30;99.90;;;;;;5029413;28;20276;-49
2022/11/24 07:58:08;;;;;;;47.50;38.00;;;2.30;99.90;;;;;;5027091;28;20296;-49
2022/11/24 08:00:34;;;;;;;49.50;37.70;;;2.40;99.90;;;;;;5015782;28;20424;-49
2022/11/24 08:02:59;;;;;;;47.10;36.80;;;2.50;99.90;;;;;;5027698;28;20187;-52
2022/11/24 08:05:25;;;;;;;47.97;38.20;;;2.60;99.90;;;;;;5028932;28;20182;-47
2022/11/24 08:07:50;;;;;;;41.80;35.90;;;2.60;99.90;;;;;;5029365;28;20194;-50
2022/11/24 08:10:16;;;;;;;46.67;37.70;;;2.70;99.90;;;;;;5029193;28;20232;-53
2022/11/24 08:12:42;;;;;;;50.22;38.90;;;2.60;99.90;;;;;;5029361;28;20194;-54
2022/11/24 08:15:08;;;;;;;49.50;38.37;;;2.70;99.90;;;;;;5029146;28;20190;-51
2022/11/24 08:17:34;;;;;;;48.65;38.42;;;2.80;99.90;;;;;;5029053;28;20249;-54
2022/11/24 08:20:00;;;;;;;44.67;39.60;;;2.70;99.90;;;;;;5028965;28;20208;-53
2022/11/24 08:22:25;;;;;;;50.00;39.20;;;2.70;99.90;;;;;;5029269;28;20181;-46
2022/11/24 08:24:51;;;;;;;50.23;39.90;;;2.80;99.90;;;;;;5029023;28;20190;-51
2022/11/24 08:27:17;;;;;;;48.90;39.73;;;2.90;99.90;;;;;;5027720;28;20217;-55
2022/11/24 08:29:43;;;;;;;49.33;39.92;;;3.00;99.90;;;;;;5027672;28;20200;-56
2022/11/24 08:32:11;;;;;;;47.23;40.50;;;3.10;99.90;;;;;;5017898;28;20555;-52
2022/11/24 08:34:37;;;;;;;50.95;40.10;;;3.20;99.90;;;;;;5027123;28;20443;-53
2022/11/24 08:37:03;;;;;;;51.97;39.22;;;3.20;99.90;;;;;;5028966;28;20720;-53
2022/11/24 08:39:29;;;;;;;46.10;39.10;;;3.30;99.90;;;;;;5028896;28;20191;-52
2022/11/24 08:41:55;;;;;;;48.80;37.80;;;3.30;99.90;;;;;;5029434;28;20640;-51
2022/11/24 08:44:21;;;;;;;51.60;39.53;;;3.30;99.90;;;;;;5028708;28;20471;-53
2022/11/24 08:46:47;;;;;;;53.17;40.40;;;3.40;99.90;;;;;;5028667;28;20190;-52
2022/11/24 08:49:13;;;;;;;45.43;38.73;;;3.40;99.90;;;;;;5028565;28;20248;-53
2022/11/24 08:51:39;;;;;;;48.35;38.55;;;3.50;99.90;;;;;;5028639;28;20178;-52
2022/11/24 08:54:05;;;;;;;45.70;39.10;;;3.60;99.90;;;;;;5028633;28;20265;-52
2022/11/24 08:56:32;;;;;;;42.87;38.23;;;3.60;99.90;;;;;;5027187;28;20479;-52
2022/11/24 08:58:58;;;;;;;45.53;39.50;;;3.60;99.90;;;;;;5028466;28;20420;-52
2022/11/24 09:01:25;;;;;;;47.30;38.85;;;3.60;99.90;;;;;;5028238;28;20186;-53
2022/11/24 09:03:51;;;;;;;45.20;39.10;;;3.60;99.90;;;;;;5028789;28;20185;-55
2022/11/24 09:06:26;;;;;;;45.97;38.65;;;3.80;99.90;;;;;;5028344;28;20269;-59
2022/11/24 09:08:54;;;;;;;45.40;37.75;;;3.80;99.90;;;;;;5027421;28;20190;-53
2022/11/24 09:11:21;;;;;;;40.40;35.92;;;3.90;99.90;;;;;;5028743;28;20186;-57
2022/11/24 09:13:46;;;;;;;42.42;36.80;;;3.90;99.90;;;;;;5028602;28;20186;-51
2022/11/24 09:16:21;;;;;;;43.47;36.97;;;4.00;99.90;;;;;;5028711;28;20206;-56
2022/11/24 09:18:53;;;;;;;40.25;35.88;;;4.10;99.90;;;;;;5028428;28;20182;-51
2022/11/24 09:21:21;;;;;;;42.03;36.33;;;4.00;99.90;;;;;;5028245;28;20265;-53
2022/11/24 09:23:49;;;;;;;44.03;36.85;;;3.80;99.90;;;;;;5028411;28;20205;-55
2022/11/24 09:26:18;;;;;;;44.78;38.00;;;3.80;99.90;;;;;;5027023;28;20196;-55
2022/11/24 09:28:44;;;;;;;42.17;37.17;;;3.80;99.90;;;;;;5028248;28;20273;-54
2022/11/24 09:31:12;;;;;;;43.35;37.83;;;3.80;99.90;;;;;;5027965;28;20194;-51
2022/11/24 09:33:38;;;;;;;44.80;37.55;;;3.80;99.90;;;;;;5028230;28;20195;-47
2022/11/24 09:36:05;;;;;;;41.08;36.63;;;3.80;99.90;;;;;;5026610;28;20591;-51
2022/11/24 09:38:31;;;;;;;45.63;37.72;;;3.90;99.90;;;;;;5028265;28;20186;-50
2022/11/24 09:41:30;;;;;;;48.50;38.63;;;3.90;99.90;;;;;;5028005;28;20174;-52
2022/11/24 09:44:35;;;;;;;42.63;36.45;;;4.00;99.90;;;;;;5027795;28;20237;-51
2022/11/24 09:47:07;;;;;;;40.35;36.03;;;4.10;99.90;;;;;;5022412;28;20182;-49
2022/11/24 09:49:49;;;;;;;42.35;36.90;;;4.10;99.90;;;;;;5028045;28;20186;-53
2022/11/24 09:52:20;;;;;;;42.75;36.50;;;4.00;99.90;;;;;;5027875;28;20243;-51
2022/11/24 09:54:55;;;;;;;40.83;36.40;;;4.10;99.90;;;;;;5027287;28;20183;-49
2022/11/24 09:57:25;;;;;;;41.35;36.92;;;4.20;99.90;;;;;;5027147;28;20202;-53
2022/11/24 09:59:50;;;;;;;41.33;36.17;;;4.30;99.90;;;;;;5027841;28;20183;-50
2022/11/24 10:02:16;;;;;;;43.63;36.53;;;4.40;99.90;;;;;;5027798;28;20197;-50
2022/11/24 10:04:45;;;;;;;40.40;34.50;;;4.40;99.90;;;;;;5028074;28;20186;-51
2022/11/24 10:07:10;;;;;;;42.67;36.20;;;4.50;99.90;;;;;;5027722;28;20242;-51
2022/11/24 10:09:55;;;;;;;39.40;34.97;;;4.60;99.90;;;;;;5027858;28;20529;-51
2022/11/24 10:12:29;;;;;;;41.90;35.38;;;4.70;99.90;;;;;;5028210;28;20193;-49
2022/11/24 10:15:21;;;;;;;38.53;34.60;;;4.80;99.90;;;;;;5030154;28;20288;-51
2022/11/24 10:18:24;;;;;;;39.70;35.50;;;4.90;99.90;;;;;;5031038;28;20214;-51
2022/11/24 10:21:11;;;;;;;40.75;35.25;;;4.90;99.90;;;;;;5031431;28;20183;-49
2022/11/24 10:24:19;;;;;;;39.60;35.47;;;5.00;99.90;;;;;;5031323;28;20213;-53
2022/11/24 10:26:53;;;;;;;38.05;33.95;;;5.10;99.90;;;;;;5018467;28;20183;-48
2022/11/24 10:29:25;;;;;;;41.90;35.47;;;5.10;99.90;;;;;;5030995;28;20277;-59
2022/11/24 10:31:55;;;;;;;39.13;34.28;;;5.00;99.90;;;;;;5022500;28;20188;-52
2022/11/24 10:34:34;;;;;;;37.42;33.25;;;5.00;99.90;;;;;;5030839;28;20588;-50
2022/11/24 10:37:33;;;;;;;38.92;34.95;;;5.00;99.90;;;;;;5030934;28;20851;-50
2022/11/24 10:40:12;;;;;;;38.75;34.05;;;5.00;99.90;;;;;;5030953;28;20212;-48
2022/11/24 10:42:38;;;;;;;37.95;33.88;;;5.00;99.90;;;;;;5030678;28;20182;-50
2022/11/24 10:45:16;;;;;;;40.08;33.65;;;5.00;99.90;;;;;;5030740;28;20243;-51
2022/11/24 10:47:42;;;;;;;36.13;32.53;;;5.10;99.90;;;;;;5030834;28;20186;-50
2022/11/24 10:50:26;;;;;;;38.67;34.67;;;5.10;99.90;;;;;;5029145;28;20194;-51
2022/11/24 10:53:10;;;;;;;39.75;33.72;;;5.20;99.90;;;;;;5018340;28;20178;-48
2022/11/24 10:55:57;;;;;;;36.90;32.92;;;5.30;99.90;;;;;;5030397;28;20274;-53
2022/11/24 10:58:25;;;;;;;38.35;31.95;;;5.30;99.90;;;;;;5045239;28;20213;-50
2022/11/24 11:00:51;;;;;;;36.88;32.90;;;5.40;99.90;;;;;;5029926;28;20176;-48
2022/11/24 11:03:25;;;;;;;35.38;31.63;;;5.40;99.90;;;;;;5030183;28;20715;-51
2022/11/24 11:05:59;;;;;;;35.35;31.80;;;5.50;99.90;;;;;;5030162;28;20251;-48
2022/11/24 11:08:29;;;;;;;35.65;32.08;;;5.60;99.90;;;;;;5028621;28;20200;-53
2022/11/24 11:11:15;;;;;;;35.88;32.30;;;5.60;99.90;;;;;;5030268;28;20597;-52
2022/11/24 11:13:54;;;;;;;34.50;30.73;;;5.70;99.90;;;;;;5030025;28;20701;-51
2022/11/24 11:16:49;;;;;;;35.20;31.67;;;5.70;99.90;;;;;;5029841;28;20242;-50
2022/11/24 11:19:41;;;;;;;35.72;32.10;;;5.70;99.90;;;;;;5030683;28;20177;-51
2022/11/24 11:22:30;;;;;;;34.67;30.75;;;5.70;99.90;;;;;;5019053;28;20581;-50
2022/11/24 11:25:14;;;;;;;36.92;33.30;;;5.70;99.90;;;;;;5029380;28;20229;-53
2022/11/24 11:27:41;;;;;;;38.30;34.40;;;5.80;99.90;;;;;;5029789;28;20225;-50
2022/11/24 11:30:15;;;;;;;41.10;36.97;;;6.00;99.90;;;;;;5029926;28;20195;-55
2022/11/24 11:33:00;;;;;;;42.55;38.15;;;5.90;99.90;;;;;;5029818;28;20178;-54
2022/11/24 11:35:28;;;;;;;35.78;32.25;;;6.00;99.90;;;;;;5030213;28;20728;-55
2022/11/24 11:38:00;;;;;;;38.03;33.97;;;6.20;99.90;;;;;;5029771;28;20569;-56
2022/11/24 11:40:28;;;;;;;36.88;33.28;;;6.30;99.90;;;;;;5030229;28;20183;-51
2022/11/24 11:43:10;;;;;;;37.73;33.73;;;6.50;99.90;;;;;;5029701;28;20281;-54
2022/11/24 11:45:39;;;;;;;36.90;33.27;;;6.60;99.90;;;;;;5029604;28;20438;-55
2022/11/24 11:48:14;;;;;;;38.03;34.17;;;6.60;99.90;;;;;;5029654;28;20459;-54
2022/11/24 11:51:12;;;;;;;37.13;33.40;;;6.50;99.90;;;;;;5029721;28;20192;-52
2022/11/24 11:54:07;;;;;;;38.17;34.28;;;6.40;99.90;;;;;;5029484;28;20432;-53
2022/11/24 11:56:43;;;;;;;37.67;34.08;;;6.40;99.90;;;;;;5027547;28;20217;-51
2022/11/24 11:59:37;;;;;;;37.45;33.75;;;6.30;99.90;;;;;;5029645;28;20681;-54
2022/11/24 12:02:02;;;;;;;37.25;33.45;;;6.30;99.90;;;;;;5029396;28;20184;-51
2022/11/24 12:04:42;;;;;;;38.07;34.20;;;6.30;99.90;;;;;;5029422;28;20669;-54
2022/11/24 12:07:37;;;;;;;39.15;34.92;;;6.30;99.90;;;;;;5029160;28;20593;-56
2022/11/24 12:10:20;;;;;;;37.37;33.57;;;6.40;99.90;;;;;;5029222;28;20671;-52
2022/11/24 12:12:58;;;;;;;37.60;33.60;;;6.40;99.90;;;;;;5029328;28;20428;-56
2022/11/24 12:15:41;;;;;;;37.20;33.73;;;6.50;99.90;;;;;;5029198;28;20760;-55
2022/11/24 12:18:24;;;;;;;36.77;33.13;;;6.50;99.90;;;;;;5028983;28;21044;-55
2022/11/24 12:21:05;;;;;;;37.63;33.83;;;6.50;99.90;;;;;;5021114;28;20451;-55
2022/11/24 12:23:49;;;;;;;36.97;33.17;;;6.50;99.90;;;;;;5044410;28;20432;-51
2022/11/24 12:26:18;;;;;;;35.72;32.13;;;6.50;99.90;;;;;;5027456;28;20450;-56
2022/11/24 12:29:05;;;;;;;36.10;32.60;;;6.40;99.90;;;;;;5028433;28;20197;-52
2022/11/24 12:32:02;;;;;;;37.97;34.17;;;6.40;99.90;;;;;;5026395;28;20200;-54
2022/11/24 12:34:46;;;;;;;37.70;33.70;;;6.50;99.90;;;;;;5027523;28;20526;-53
2022/11/24 12:37:29;;;;;;;39.13;35.20;;;6.40;99.90;;;;;;5028273;28;21608;-55
2022/11/24 12:40:00;;;;;;;38.90;35.00;;;6.40;99.90;;;;;;5029020;28;20196;-53
2022/11/24 12:42:45;;;;;;;39.07;35.03;;;6.50;99.90;;;;;;5028837;28;20916;-54
2022/11/24 12:45:13;;;;;;;36.88;33.03;;;6.50;99.90;;;;;;5029320;28;20745;-50
2022/11/24 12:48:02;;;;;;;38.50;34.42;;;6.40;99.90;;;;;;5028772;28;20196;-51
2022/11/24 12:50:30;;;;;;;39.83;33.78;;;6.50;99.90;;;;;;5028726;28;20192;-53